Terminal Aerodrome Forecast
Issued by NWS Central Illinois

Home | Current Version | Previous Version | Text Only | Print | Product List | Glossary On
Versions: 1 2 3 4 5 6 7 8 9 10 11 12 13 14 15 16 17
000
FTUS43 KILX 250310 AAB
TAFPIA
TAF AMD
KPIA 250310Z 2503/2524 17005KT P6SM VCSH OVC050
     FM250600 16007KT 3SM SHRA BR VCTS OVC015CB
     FM251200 13008KT 3SM SHRA BR SCT006 OVC012
     FM251700 16011G18KT 6SM -RA BR OVC020=

USA.gov is the U.S. government's official web portal to all federal, state and local government web resources and services.